Weather at Genting Airport [CLOSED]

Public forecast

Using degrees Celsius for public forecast. Weather courtesy of forecast.io.

Closest aviation weather report (METAR) to Genting Airport

Closest report is Sibu Airport, 19.2 nm (35.5 km) ENE.

2024/05/19 19:00 (retrieved 56 minutes ago)

WBGS 191900Z 10003KT 9999 SCT018 26/25 Q1006

Closest aviation forecast (TAF) to Genting Airport

Closest forecast is Sibu Airport, 19.2 nm (35.5 km) ENE.

2024/05/19 18:00 (retrieved 2 hours ago)

TAF WBGS 191700Z 1918/2018 VRB03KT 9999 SCT018 TEMPO 2009/2013 26005KT 5000 -TSRA FEW015CB SCT016